East Templeton, Massachusetts
Current Conditions -  °F | °C
As of 4:52 AM on Sunday 25 Jan 2015 (Local Time) from KORE Reporting Station
Overcast Overcast  
Wind Chill: 25°   Ceiling: 2800
Heat Index: 31°   Visibility: 10mi
Dew Point: 26°   Wind: 6mph
Humidity: 82%   Direction: 220°SW
Pressure: 29.44"   Gusts: NA
Location:  42.56°N, 72.04°W
Report Text: KORE 250952Z AUTO 22005KT 10SM BKN028 OVC034 M01/M03 A2944 RMK AO2 SLP974 T10061033
Loading
Personal Weather Stations






























Interactive Weather Map New forecast layout! Learn more

10-Day Weather Forecast

Advertisements
Track Severe Weather on mobile